createdAt,value
2019-03-30T00:01:39.630Z,102386.72
2019-03-30T00:04:08.047Z,102383.50
2019-03-30T00:06:36.491Z,102383.50
2019-03-30T00:09:08.212Z,102374.80
2019-03-30T00:11:36.733Z,102385.36
2019-03-30T00:14:05.219Z,102385.36
2019-03-30T00:16:33.669Z,102383.54
2019-03-30T00:19:02.085Z,102381.34
2019-03-30T00:21:30.532Z,102379.98
2019-03-30T00:23:58.950Z,102379.98
2019-03-30T00:26:27.399Z,102383.55
2019-03-30T00:28:55.812Z,102382.92
2019-03-30T00:31:24.268Z,102381.71
2019-03-30T00:33:52.751Z,102376.05
2019-03-30T00:36:21.202Z,102380.60
2019-03-30T00:38:49.616Z,102380.60
2019-03-30T00:41:18.137Z,102377.28
2019-03-30T00:43:46.554Z,102377.28
2019-03-30T00:46:14.999Z,102380.10
2019-03-30T00:48:43.416Z,102371.23
2019-03-30T00:51:11.866Z,102368.67
2019-03-30T00:53:40.282Z,102365.34
2019-03-30T00:56:08.731Z,102365.34
2019-03-30T00:58:37.171Z,102369.03
2019-03-30T01:01:05.680Z,102363.76
2019-03-30T01:03:34.107Z,102359.06
2019-03-30T01:06:02.551Z,102359.67
2019-03-30T01:08:30.966Z,102360.76
2019-03-30T01:10:59.412Z,102356.73
2019-03-30T01:13:27.836Z,102358.92
2019-03-30T01:15:56.276Z,102359.65
2019-03-30T01:18:24.701Z,102359.98
2019-03-30T01:20:53.148Z,102360.94
2019-03-30T01:23:21.569Z,102355.05
2019-03-30T01:25:49.986Z,102350.77
2019-03-30T01:28:18.438Z,102344.88
2019-03-30T01:30:47.180Z,102344.88
2019-03-30T01:33:15.687Z,102345.94
2019-03-30T01:35:44.097Z,102338.23
2019-03-30T01:38:12.541Z,102340.93
2019-03-30T01:40:40.953Z,102331.25
2019-03-30T01:43:09.407Z,102335.95
2019-03-30T01:45:37.897Z,102333.36
2019-03-30T01:48:06.343Z,102335.30
2019-03-30T01:50:34.756Z,102328.81
2019-03-30T01:53:03.199Z,102328.30
2019-03-30T01:55:31.681Z,102326.09
2019-03-30T01:58:00.128Z,102332.05
2019-03-30T02:00:28.543Z,102332.05
2019-03-30T02:02:56.990Z,102329.58
2019-03-30T02:05:25.473Z,102327.92
2019-03-30T02:07:53.927Z,102317.70
2019-03-30T02:10:42.548Z,102323.11
2019-03-30T02:13:11.167Z,102318.88
2019-03-30T02:15:39.583Z,102321.48
2019-03-30T02:18:08.296Z,102314.86
2019-03-30T02:20:45.380Z,102315.59
2019-03-30T02:23:20.779Z,102307.27
2019-03-30T02:25:49.197Z,102307.27
2019-03-30T02:28:17.639Z,102308.48
2019-03-30T02:30:46.060Z,102307.09
2019-03-30T02:33:14.626Z,102305.88
2019-03-30T02:35:42.982Z,102303.15
2019-03-30T02:38:11.434Z,102308.05
2019-03-30T02:40:39.841Z,102303.27
2019-03-30T02:43:08.354Z,102303.20
2019-03-30T02:45:36.832Z,102301.22
2019-03-30T02:48:05.343Z,102297.93
2019-03-30T02:50:48.576Z,102290.43
2019-03-30T02:53:04.020Z,102299.15
2019-03-30T02:55:32.450Z,102293.03
2019-03-30T02:58:00.851Z,102292.71
2019-03-30T03:00:29.284Z,102283.01
2019-03-30T03:02:57.707Z,102282.52
2019-03-30T03:05:26.217Z,102281.97
2019-03-30T03:07:54.639Z,102279.95
2019-03-30T03:10:23.319Z,102275.32
2019-03-30T03:12:51.739Z,102280.09
2019-03-30T03:15:20.180Z,102280.09
2019-03-30T03:17:48.598Z,102275.09
2019-03-30T03:20:17.027Z,102271.77
2019-03-30T03:22:45.441Z,102270.73
2019-03-30T03:25:14.122Z,102274.57
2019-03-30T03:27:42.530Z,102271.75
2019-03-30T03:30:11.366Z,102273.86
2019-03-30T03:32:39.760Z,102278.56
2019-03-30T03:35:08.755Z,102276.92
2019-03-30T03:37:45.531Z,102264.88
2019-03-30T03:40:09.078Z,102266.08
2019-03-30T03:42:37.634Z,102267.43
2019-03-30T03:45:07.813Z,102262.04
2019-03-30T03:47:36.292Z,102264.61
2019-03-30T03:50:05.673Z,102262.28
2019-03-30T03:52:34.419Z,102256.18
2019-03-30T03:55:03.033Z,102246.04
2019-03-30T03:57:34.367Z,102247.16
2019-03-30T04:00:03.734Z,102246.93
2019-03-30T04:02:35.332Z,102249.05
2019-03-30T04:05:05.120Z,102243.64
2019-03-30T04:07:35.009Z,102245.67
2019-03-30T04:10:06.192Z,102246.30
2019-03-30T04:12:36.626Z,102240.66
2019-03-30T04:15:07.481Z,102240.48
2019-03-30T04:17:36.038Z,102238.70
2019-03-30T04:20:06.200Z,102236.72
2019-03-30T04:22:34.710Z,102235.80
2019-03-30T04:25:03.703Z,102233.58
2019-03-30T04:27:32.165Z,102237.82
2019-03-30T04:30:00.676Z,102229.20
2019-03-30T04:32:29.200Z,102231.00
2019-03-30T04:34:57.606Z,102225.55
2019-03-30T04:37:26.075Z,102225.88
2019-03-30T04:39:54.482Z,102220.71
2019-03-30T04:42:22.931Z,102220.44
2019-03-30T04:44:51.342Z,102221.53
2019-03-30T04:47:19.801Z,102224.03
2019-03-30T04:49:48.211Z,102225.29
2019-03-30T04:52:16.660Z,102224.52
2019-03-30T04:54:45.071Z,102219.27
2019-03-30T04:57:13.512Z,102214.46
2019-03-30T04:59:41.932Z,102202.97
2019-03-30T05:02:10.378Z,102203.66
2019-03-30T05:04:38.801Z,102198.86
2019-03-30T05:07:07.251Z,102195.31
2019-03-30T05:09:35.666Z,102193.97
2019-03-30T05:12:04.186Z,102189.73
2019-03-30T05:14:32.600Z,102187.20
2019-03-30T05:17:01.061Z,102188.98
2019-03-30T05:19:29.459Z,102194.52
2019-03-30T05:22:11.630Z,102184.61
2019-03-30T05:24:28.037Z,102180.09
2019-03-30T05:26:56.484Z,102183.05
2019-03-30T05:29:24.897Z,102176.45
2019-03-30T05:31:53.346Z,102184.19
2019-03-30T05:34:21.766Z,102176.27
2019-03-30T05:36:50.186Z,102181.41
2019-03-30T05:39:18.632Z,102182.67
2019-03-30T05:41:47.047Z,102180.85
2019-03-30T05:44:15.495Z,102184.06
2019-03-30T05:46:43.917Z,102184.92
2019-03-30T05:49:12.367Z,102181.09
2019-03-30T05:51:40.852Z,102184.25
2019-03-30T05:54:09.302Z,102179.11
2019-03-30T05:56:37.715Z,102179.36
2019-03-30T05:59:06.157Z,102180.94
2019-03-30T06:01:34.577Z,102181.28
2019-03-30T06:04:03.078Z,102179.88
2019-03-30T06:06:31.512Z,102176.02
2019-03-30T06:08:59.967Z,102168.72
2019-03-30T06:11:28.386Z,102171.97
2019-03-30T06:13:56.833Z,102167.55
2019-03-30T06:16:25.257Z,102167.64
2019-03-30T06:18:53.706Z,102167.64
2019-03-30T06:21:22.128Z,102162.37
2019-03-30T06:23:50.570Z,102162.37
2019-03-30T06:26:18.990Z,102161.02
2019-03-30T06:28:47.442Z,102155.63
2019-03-30T06:31:15.865Z,102159.27
2019-03-30T06:33:44.305Z,102159.27
2019-03-30T06:36:12.722Z,102159.74
2019-03-30T06:38:41.510Z,102164.41
2019-03-30T06:41:09.939Z,102164.11
2019-03-30T06:43:38.390Z,102164.11
2019-03-30T06:46:06.802Z,102164.98
2019-03-30T06:48:36.241Z,102162.92
2019-03-30T06:51:04.854Z,102162.92
2019-03-30T06:53:33.324Z,102164.83
2019-03-30T06:56:01.819Z,102164.83
2019-03-30T06:58:30.825Z,102157.86
2019-03-30T07:00:59.421Z,102157.86
2019-03-30T07:03:27.912Z,102160.89
2019-03-30T07:05:57.023Z,102167.52
2019-03-30T07:08:26.986Z,102167.93
2019-03-30T07:10:55.808Z,102154.98
2019-03-30T07:13:24.389Z,102160.24
2019-03-30T07:15:53.216Z,102152.03
2019-03-30T07:18:21.702Z,102147.08
2019-03-30T07:20:50.225Z,102150.62
2019-03-30T07:23:18.725Z,102144.63
2019-03-30T07:25:47.175Z,102142.75
2019-03-30T07:28:15.590Z,102132.45
2019-03-30T07:30:44.035Z,102134.85
2019-03-30T07:33:12.458Z,102132.21
2019-03-30T07:35:40.977Z,102132.48
2019-03-30T07:38:09.405Z,102126.22
2019-03-30T07:40:37.848Z,102125.97
2019-03-30T07:43:06.268Z,102122.58
2019-03-30T07:45:34.784Z,102123.69
2019-03-30T07:48:03.205Z,102118.24
2019-03-30T07:50:31.718Z,102108.03
2019-03-30T07:53:00.134Z,102103.77
2019-03-30T07:55:28.554Z,102101.91
2019-03-30T07:57:57.032Z,102092.18
2019-03-30T08:00:30.592Z,102091.30
2019-03-30T08:02:55.673Z,102083.77
2019-03-30T08:05:24.107Z,102080.67
2019-03-30T08:07:52.556Z,102075.17
2019-03-30T08:10:21.039Z,102073.56
2019-03-30T08:12:49.487Z,102069.52
2019-03-30T08:15:17.979Z,102068.59
2019-03-30T08:17:46.431Z,102064.89
2019-03-30T08:20:15.186Z,102067.37
2019-03-30T08:22:43.632Z,102065.89
2019-03-30T08:25:12.123Z,102071.30
2019-03-30T08:27:40.578Z,102065.13
2019-03-30T08:30:09.230Z,102064.37
2019-03-30T08:32:37.684Z,102066.36
2019-03-30T08:35:07.344Z,102061.45
2019-03-30T08:37:35.805Z,102059.23
2019-03-30T08:40:04.770Z,102059.85
2019-03-30T08:42:33.223Z,102050.70
2019-03-30T08:45:01.645Z,102048.05
2019-03-30T08:47:30.085Z,102046.55
2019-03-30T08:49:58.512Z,102044.50
2019-03-30T08:52:26.960Z,102047.66
2019-03-30T08:54:55.389Z,102040.62
2019-03-30T08:57:23.837Z,102033.30
2019-03-30T08:59:52.264Z,102033.82
2019-03-30T09:02:20.882Z,102030.19
2019-03-30T09:04:49.305Z,102022.00
2019-03-30T09:07:17.754Z,102020.61
2019-03-30T09:09:46.184Z,102016.31
2019-03-30T09:12:14.612Z,102015.16
2019-03-30T09:14:43.066Z,102008.51
2019-03-30T09:17:11.487Z,102007.00
2019-03-30T09:19:39.937Z,102003.22
2019-03-30T09:22:08.364Z,101999.75
2019-03-30T09:24:36.808Z,101991.68
2019-03-30T09:27:05.227Z,101992.05
2019-03-30T09:29:33.688Z,101981.27
2019-03-30T09:32:13.806Z,101986.37
2019-03-30T09:34:32.351Z,101976.84
2019-03-30T09:37:00.771Z,101973.97
2019-03-30T09:39:29.214Z,101969.86
2019-03-30T09:41:57.636Z,101966.38
2019-03-30T09:44:26.089Z,101965.75
2019-03-30T09:46:54.518Z,101958.86
2019-03-30T09:49:22.955Z,101948.06
2019-03-30T09:51:52.266Z,101951.66
2019-03-30T09:54:23.881Z,101947.30
2019-03-30T09:56:50.850Z,101945.80
2019-03-30T09:59:19.298Z,101938.59
2019-03-30T10:01:47.713Z,101935.80
2019-03-30T10:04:16.162Z,101929.30
2019-03-30T10:06:44.567Z,101934.98
2019-03-30T10:09:13.005Z,101924.56
2019-03-30T10:11:41.417Z,101921.16
2019-03-30T10:14:09.856Z,101914.27
2019-03-30T10:16:38.282Z,101921.12
2019-03-30T10:19:06.720Z,101911.87
2019-03-30T10:21:35.133Z,101912.22
2019-03-30T10:24:03.553Z,101920.53
2019-03-30T10:26:31.993Z,101910.91
2019-03-30T10:29:00.396Z,101895.85
2019-03-30T10:31:28.844Z,101903.86
2019-03-30T10:33:57.251Z,101896.63
2019-03-30T10:36:25.684Z,101893.77
2019-03-30T10:38:54.111Z,101891.96
2019-03-30T10:41:22.551Z,101891.41
2019-03-30T10:43:50.969Z,101885.91
2019-03-30T10:46:19.415Z,101881.72
2019-03-30T10:48:47.834Z,101871.21
2019-03-30T10:51:16.340Z,101868.66
2019-03-30T10:53:44.760Z,101856.34
2019-03-30T10:56:13.194Z,101872.33
2019-03-30T10:58:41.606Z,101863.72
2019-03-30T11:01:10.048Z,101870.50
2019-03-30T11:03:38.458Z,101865.44
2019-03-30T11:06:06.908Z,101865.83
2019-03-30T11:08:35.328Z,101867.94
2019-03-30T11:11:03.833Z,101861.91
2019-03-30T11:13:32.258Z,101853.52
2019-03-30T11:16:00.702Z,101849.83
2019-03-30T11:18:29.116Z,101849.63
2019-03-30T11:20:57.554Z,101847.70
2019-03-30T11:23:25.963Z,101850.97
2019-03-30T11:25:54.428Z,101842.73
2019-03-30T11:28:22.816Z,101837.52
2019-03-30T11:30:51.235Z,101841.64
2019-03-30T11:33:19.740Z,101841.71
2019-03-30T11:35:48.225Z,101838.59
2019-03-30T11:38:16.672Z,101834.23
2019-03-30T11:40:45.086Z,101830.75
2019-03-30T11:43:13.529Z,101820.52
2019-03-30T11:45:42.020Z,101824.05
2019-03-30T11:48:10.462Z,101837.55
2019-03-30T11:50:38.870Z,101821.48
2019-03-30T11:53:07.383Z,101814.53
2019-03-30T11:55:35.793Z,101808.20
2019-03-30T11:58:04.237Z,101801.41
2019-03-30T12:00:32.723Z,101796.45
2019-03-30T12:03:01.176Z,101784.38
2019-03-30T12:05:29.589Z,101799.52
2019-03-30T12:07:58.096Z,101796.03
2019-03-30T12:10:26.517Z,101792.38
2019-03-30T12:12:54.957Z,101789.53
2019-03-30T12:15:23.377Z,101776.19
2019-03-30T12:17:51.862Z,101781.36
2019-03-30T12:20:20.307Z,101778.34
2019-03-30T12:22:48.724Z,101771.72
2019-03-30T12:25:17.147Z,101767.48
2019-03-30T12:27:45.593Z,101760.19
2019-03-30T12:30:14.073Z,101761.02
2019-03-30T12:32:42.516Z,101758.45
2019-03-30T12:35:11.009Z,101749.44
2019-03-30T12:37:39.459Z,101745.83
2019-03-30T12:40:08.016Z,101747.05
2019-03-30T12:42:36.520Z,101743.34
2019-03-30T12:45:06.578Z,101740.94
2019-03-30T12:47:34.995Z,101731.23
2019-03-30T12:50:04.374Z,101726.82
2019-03-30T12:52:32.790Z,101725.64
2019-03-30T12:55:01.240Z,101726.23
2019-03-30T12:57:29.653Z,101722.11
2019-03-30T12:59:59.331Z,101722.20
2019-03-30T13:02:27.953Z,101714.45
2019-03-30T13:04:56.399Z,101705.16
2019-03-30T13:07:24.819Z,101704.47
2019-03-30T13:09:53.257Z,101699.81
2019-03-30T13:12:21.668Z,101694.16
2019-03-30T13:14:50.115Z,101696.28
2019-03-30T13:17:18.526Z,101685.13
2019-03-30T13:19:46.961Z,101684.35
2019-03-30T13:22:15.388Z,101675.81
2019-03-30T13:24:43.816Z,101677.20
2019-03-30T13:27:13.124Z,101675.22
2019-03-30T13:29:41.753Z,101673.22
2019-03-30T13:32:10.165Z,101673.77
2019-03-30T13:34:38.623Z,101666.55
2019-03-30T13:37:17.783Z,101663.06
2019-03-30T13:39:46.486Z,101656.86
2019-03-30T13:42:14.896Z,101678.58
2019-03-30T13:44:43.431Z,101667.46
2019-03-30T13:47:11.841Z,101673.84
2019-03-30T13:49:40.274Z,101660.94
2019-03-30T13:52:08.687Z,101657.70
2019-03-30T13:54:38.743Z,101644.27
2019-03-30T13:57:07.425Z,101661.42
2019-03-30T13:59:35.895Z,101658.83
2019-03-30T14:02:04.309Z,101653.25
2019-03-30T14:04:32.722Z,101649.14
2019-03-30T14:07:01.173Z,101644.81
2019-03-30T14:09:29.582Z,101638.88
2019-03-30T14:11:58.025Z,101641.50
2019-03-30T14:14:26.451Z,101633.44
2019-03-30T14:16:54.902Z,101633.56
2019-03-30T14:19:23.315Z,101631.66
2019-03-30T14:21:51.761Z,101626.89
2019-03-30T14:24:20.166Z,101618.40
2019-03-30T14:26:48.610Z,101611.73
2019-03-30T14:29:17.026Z,101617.64
2019-03-30T14:31:45.494Z,101616.95
2019-03-30T14:34:13.957Z,101609.36
2019-03-30T14:36:42.406Z,101612.42
2019-03-30T14:39:10.833Z,101603.91
2019-03-30T14:41:39.267Z,101597.46
2019-03-30T14:44:07.693Z,101605.88
2019-03-30T14:46:36.140Z,101598.95
2019-03-30T14:49:04.619Z,101597.58
2019-03-30T14:51:33.074Z,101596.44
2019-03-30T14:54:01.495Z,101590.41
2019-03-30T14:56:29.940Z,101584.57
2019-03-30T14:59:09.378Z,101582.78
2019-03-30T15:01:28.519Z,101575.36
2019-03-30T15:03:56.943Z,101581.73
2019-03-30T15:06:25.388Z,101571.75
2019-03-30T15:08:53.796Z,101575.17
2019-03-30T15:11:22.242Z,101567.86
2019-03-30T15:13:50.660Z,101572.23
2019-03-30T15:16:19.183Z,101574.77
2019-03-30T15:18:47.598Z,101567.42
2019-03-30T15:21:16.126Z,101568.26
2019-03-30T15:23:44.535Z,101558.36
2019-03-30T15:26:12.981Z,101561.89
2019-03-30T15:28:42.887Z,101561.70
2019-03-30T15:31:11.617Z,101561.05
2019-03-30T15:33:40.029Z,101554.86
2019-03-30T15:36:08.510Z,101554.16
2019-03-30T15:38:36.931Z,101547.25
2019-03-30T15:41:05.358Z,101556.16
2019-03-30T15:43:38.639Z,101545.95
2019-03-30T15:46:04.012Z,101539.04
2019-03-30T15:48:32.524Z,101542.70
2019-03-30T15:51:01.012Z,101548.16
2019-03-30T15:53:29.477Z,101549.95
2019-03-30T15:55:57.979Z,101538.03
2019-03-30T15:58:26.422Z,101549.09
2019-03-30T16:00:55.088Z,101541.88
2019-03-30T16:03:23.593Z,101541.49
2019-03-30T16:05:52.097Z,101549.23
2019-03-30T16:08:20.537Z,101546.25
2019-03-30T16:10:52.111Z,101540.94
2019-03-30T16:13:19.283Z,101546.51
2019-03-30T16:15:47.689Z,101548.78
2019-03-30T16:18:16.134Z,101553.02
2019-03-30T16:20:44.559Z,101546.73
2019-03-30T16:23:12.997Z,101550.88
2019-03-30T16:25:41.401Z,101543.97
2019-03-30T16:28:09.841Z,101545.10
2019-03-30T16:30:38.258Z,101544.39
2019-03-30T16:33:06.765Z,101543.34
2019-03-30T16:35:35.252Z,101547.16
2019-03-30T16:38:03.696Z,101546.41
2019-03-30T16:40:32.111Z,101542.67
2019-03-30T16:43:00.556Z,101536.33
2019-03-30T16:45:28.980Z,101549.38
2019-03-30T16:47:57.413Z,101547.38
2019-03-30T16:50:25.836Z,101541.72
2019-03-30T16:52:54.254Z,101541.42
2019-03-30T16:55:22.690Z,101543.41
2019-03-30T16:57:51.112Z,101538.80
2019-03-30T17:00:19.629Z,101538.52
2019-03-30T17:02:48.042Z,101539.13
2019-03-30T17:05:16.560Z,101546.36
2019-03-30T17:07:44.976Z,101541.66
2019-03-30T17:10:13.599Z,101551.34
2019-03-30T17:12:42.014Z,101547.39
2019-03-30T17:15:10.838Z,101545.31
2019-03-30T17:17:39.315Z,101544.19
2019-03-30T17:20:08.641Z,101545.30
2019-03-30T17:22:37.104Z,101548.36
2019-03-30T17:25:07.115Z,101550.36
2019-03-30T17:27:36.271Z,101551.37
2019-03-30T17:30:07.728Z,101550.24
2019-03-30T17:32:36.144Z,101552.52
2019-03-30T17:35:06.222Z,101555.00
2019-03-30T17:37:34.640Z,101560.62
2019-03-30T17:40:03.698Z,101553.73
2019-03-30T17:42:32.119Z,101563.80
2019-03-30T17:45:00.569Z,101566.34
2019-03-30T17:47:28.981Z,101561.16
2019-03-30T17:49:57.428Z,101564.17
2019-03-30T17:52:25.844Z,101568.27
2019-03-30T17:54:54.368Z,101571.06
2019-03-30T17:57:22.791Z,101564.32
2019-03-30T17:59:51.236Z,101567.22
2019-03-30T18:02:22.954Z,101572.13
2019-03-30T18:04:49.902Z,101573.91
2019-03-30T18:07:18.397Z,101565.05
2019-03-30T18:09:46.845Z,101573.33
2019-03-30T18:12:15.265Z,101570.80
2019-03-30T18:14:43.709Z,101574.08
2019-03-30T18:17:12.133Z,101574.20
2019-03-30T18:19:40.583Z,101574.73
2019-03-30T18:22:09.008Z,101577.53
2019-03-30T18:24:37.427Z,101575.59
2019-03-30T18:27:05.877Z,101585.59
2019-03-30T18:29:34.295Z,101584.03
2019-03-30T18:32:03.114Z,101588.57
2019-03-30T18:34:31.705Z,101590.50
2019-03-30T18:37:00.221Z,101599.48
2019-03-30T18:39:29.582Z,101601.57
2019-03-30T18:41:58.035Z,101602.56
2019-03-30T18:44:26.826Z,101601.86
2019-03-30T18:46:55.288Z,101598.28
2019-03-30T18:49:23.772Z,101607.38
2019-03-30T18:51:52.220Z,101603.42
2019-03-30T18:54:20.804Z,101602.16
2019-03-30T18:56:49.254Z,101603.17
2019-03-30T18:59:17.673Z,101606.34
2019-03-30T19:01:46.123Z,101606.83
2019-03-30T19:04:14.616Z,101614.84
2019-03-30T19:06:43.073Z,101616.21
2019-03-30T19:09:11.487Z,101617.81
2019-03-30T19:11:39.938Z,101626.87
2019-03-30T19:14:08.506Z,101629.45
2019-03-30T19:16:37.025Z,101626.64
2019-03-30T19:19:05.447Z,101620.59
2019-03-30T19:21:33.898Z,101623.03
2019-03-30T19:24:02.313Z,101620.17
2019-03-30T19:26:30.737Z,101629.64
2019-03-30T19:28:59.190Z,101622.53
2019-03-30T19:31:27.676Z,101625.48
2019-03-30T19:33:56.135Z,101622.13
2019-03-30T19:36:24.548Z,101621.77
2019-03-30T19:38:52.990Z,101626.28
2019-03-30T19:41:21.414Z,101627.48
2019-03-30T19:43:49.932Z,101629.55
2019-03-30T19:46:18.343Z,101631.30
2019-03-30T19:48:46.794Z,101628.57
2019-03-30T19:51:15.210Z,101628.88
2019-03-30T19:53:43.653Z,101627.34
2019-03-30T19:56:12.075Z,101628.69
2019-03-30T19:58:40.524Z,101631.62
2019-03-30T20:01:09.010Z,101634.77
2019-03-30T20:03:37.459Z,101637.69
2019-03-30T20:06:05.875Z,101633.66
2019-03-30T20:08:34.393Z,101636.44
2019-03-30T20:11:03.058Z,101635.56
2019-03-30T20:13:31.513Z,101635.70
2019-03-30T20:15:59.932Z,101635.12
2019-03-30T20:18:28.376Z,101634.59
2019-03-30T20:20:56.864Z,101638.31
2019-03-30T20:23:25.311Z,101642.49
2019-03-30T20:25:53.731Z,101636.02
2019-03-30T20:28:22.199Z,101636.56
2019-03-30T20:30:51.055Z,101631.65
2019-03-30T20:33:19.505Z,101637.72
2019-03-30T20:35:47.923Z,101633.33
2019-03-30T20:38:16.429Z,101635.81
2019-03-30T20:40:44.834Z,101634.89
2019-03-30T20:43:13.259Z,101631.48
2019-03-30T20:45:41.705Z,101634.89
2019-03-30T20:48:10.127Z,101633.91
2019-03-30T20:50:38.572Z,101632.02
2019-03-30T20:53:07.077Z,101633.16
2019-03-30T20:55:35.687Z,101629.30
2019-03-30T20:58:04.257Z,101638.13
2019-03-30T21:00:32.715Z,101641.13
2019-03-30T21:03:01.136Z,101638.15
2019-03-30T21:05:29.595Z,101637.25
2019-03-30T21:07:58.020Z,101639.33
2019-03-30T21:10:26.477Z,101640.91
2019-03-30T21:12:54.904Z,101635.11
2019-03-30T21:15:23.356Z,101640.23
2019-03-30T21:17:51.781Z,101643.37
2019-03-30T21:20:20.225Z,101642.28
2019-03-30T21:22:48.654Z,101639.61
2019-03-30T21:25:17.109Z,101653.38
2019-03-30T21:27:45.549Z,101649.80
2019-03-30T21:30:14.863Z,101645.55
2019-03-30T21:32:43.285Z,101656.89
2019-03-30T21:35:11.777Z,101656.75
2019-03-30T21:37:40.230Z,101654.83
2019-03-30T21:40:08.717Z,101662.77
2019-03-30T21:42:37.166Z,101657.49
2019-03-30T21:45:07.331Z,101657.73
2019-03-30T21:47:35.783Z,101667.20
2019-03-30T21:50:06.356Z,101661.21
2019-03-30T21:52:34.810Z,101661.77
2019-03-30T21:55:03.407Z,101669.80
2019-03-30T21:57:31.860Z,101668.67
2019-03-30T22:00:10.032Z,101668.79
2019-03-30T22:02:30.532Z,101670.85
2019-03-30T22:04:58.966Z,101682.51
2019-03-30T22:07:27.418Z,101681.52
2019-03-30T22:09:56.505Z,101679.58
2019-03-30T22:12:24.957Z,101688.48
2019-03-30T22:14:53.377Z,101688.66
2019-03-30T22:17:21.832Z,101692.89
2019-03-30T22:19:50.256Z,101699.92
2019-03-30T22:22:18.708Z,101697.59
2019-03-30T22:24:47.129Z,101698.02
2019-03-30T22:27:15.584Z,101700.49
2019-03-30T22:29:44.007Z,101698.20
2019-03-30T22:32:12.455Z,101699.14
2019-03-30T22:34:40.880Z,101705.33
2019-03-30T22:37:09.328Z,101707.42
2019-03-30T22:39:37.749Z,101709.80
2019-03-30T22:42:06.199Z,101710.69
2019-03-30T22:44:34.619Z,101710.23
2019-03-30T22:47:03.044Z,101712.16
2019-03-30T22:49:31.497Z,101708.56
2019-03-30T22:51:59.926Z,101714.23
2019-03-30T22:54:28.366Z,101712.19
2019-03-30T22:56:56.783Z,101718.00
2019-03-30T22:59:25.234Z,101711.55
2019-03-30T23:01:53.727Z,101723.16
2019-03-30T23:04:22.180Z,101720.94
2019-03-30T23:06:50.604Z,101728.46
2019-03-30T23:09:19.056Z,101726.41
2019-03-30T23:11:47.475Z,101725.73
2019-03-30T23:14:15.920Z,101729.64
2019-03-30T23:16:44.336Z,101730.49
2019-03-30T23:19:12.788Z,101736.80
2019-03-30T23:21:41.210Z,101734.42
2019-03-30T23:24:09.666Z,101736.12
2019-03-30T23:26:38.088Z,101737.31
2019-03-30T23:29:06.580Z,101734.95
2019-03-30T23:31:35.047Z,101732.05
2019-03-30T23:34:03.506Z,101735.28
2019-03-30T23:36:31.921Z,101736.98
2019-03-30T23:39:00.362Z,101733.74
2019-03-30T23:41:28.788Z,101743.94
2019-03-30T23:43:57.269Z,101745.33
2019-03-30T23:46:25.684Z,101746.36
2019-03-30T23:48:54.102Z,101743.97
2019-03-30T23:51:22.624Z,101740.04
2019-03-30T23:53:51.055Z,101742.77
2019-03-30T23:56:26.053Z,101737.33
2019-03-30T23:58:54.538Z,101735.94
